sensor_id;sensor_type;location;lat;lon;timestamp;temperature;humidity
5576;DHT22;2810;50.134;8.626;2023-04-10T00:01:32;5.50;99.90
5576;DHT22;2810;50.134;8.626;2023-04-10T00:04:01;5.50;99.90
5576;DHT22;2810;50.134;8.626;2023-04-10T00:06:26;5.50;99.90
5576;DHT22;2810;50.134;8.626;2023-04-10T00:08:52;5.50;99.90
5576;DHT22;2810;50.134;8.626;2023-04-10T00:11:18;5.40;99.90
5576;DHT22;2810;50.134;8.626;2023-04-10T00:13:43;5.40;99.90
5576;DHT22;2810;50.134;8.626;2023-04-10T00:16:09;5.30;99.90
5576;DHT22;2810;50.134;8.626;2023-04-10T00:18:34;5.30;99.90
5576;DHT22;2810;50.134;8.626;2023-04-10T00:21:01;5.30;99.90
5576;DHT22;2810;50.134;8.626;2023-04-10T00:23:26;5.60;99.90
5576;DHT22;2810;50.134;8.626;2023-04-10T00:25:52;5.30;99.90
5576;DHT22;2810;50.134;8.626;2023-04-10T00:28:17;5.30;99.90
5576;DHT22;2810;50.134;8.626;2023-04-10T00:30:43;5.30;99.90
5576;DHT22;2810;50.134;8.626;2023-04-10T00:33:08;5.20;99.90
5576;DHT22;2810;50.134;8.626;2023-04-10T00:35:33;5.20;99.90
5576;DHT22;2810;50.134;8.626;2023-04-10T00:37:59;5.10;99.90
5576;DHT22;2810;50.134;8.626;2023-04-10T00:40:25;5.20;99.90
5576;DHT22;2810;50.134;8.626;2023-04-10T00:42:50;5.10;99.90
5576;DHT22;2810;50.134;8.626;2023-04-10T00:45:16;5.10;99.90
5576;DHT22;2810;50.134;8.626;2023-04-10T00:47:41;5.00;99.90
5576;DHT22;2810;50.134;8.626;2023-04-10T00:50:07;4.90;99.90
5576;DHT22;2810;50.134;8.626;2023-04-10T00:52:32;4.90;99.90
5576;DHT22;2810;50.134;8.626;2023-04-10T00:54:58;4.90;99.90
5576;DHT22;2810;50.134;8.626;2023-04-10T00:57:23;4.90;99.90
5576;DHT22;2810;50.134;8.626;2023-04-10T00:59:49;4.90;99.90
5576;DHT22;2810;50.134;8.626;2023-04-10T01:02:16;4.90;99.90
5576;DHT22;2810;50.134;8.626;2023-04-10T01:04:41;4.90;99.90
5576;DHT22;2810;50.134;8.626;2023-04-10T01:07:14;4.80;99.90
5576;DHT22;2810;50.134;8.626;2023-04-10T01:09:43;4.80;99.90
5576;DHT22;2810;50.134;8.626;2023-04-10T01:17:07;4.80;99.90
5576;DHT22;2810;50.134;8.626;2023-04-10T01:22:25;4.80;99.90
5576;DHT22;2810;50.134;8.626;2023-04-10T01:27:43;4.60;99.90
5576;DHT22;2810;50.134;8.626;2023-04-10T01:30:11;4.60;99.90
5576;DHT22;2810;50.134;8.626;2023-04-10T01:32:39;4.50;99.90
5576;DHT22;2810;50.134;8.626;2023-04-10T01:35:05;4.50;99.90
5576;DHT22;2810;50.134;8.626;2023-04-10T01:37:33;4.50;99.90
5576;DHT22;2810;50.134;8.626;2023-04-10T01:40:00;4.50;99.90
5576;DHT22;2810;50.134;8.626;2023-04-10T01:42:27;4.50;99.90
5576;DHT22;2810;50.134;8.626;2023-04-10T01:44:53;4.40;99.90
5576;DHT22;2810;50.134;8.626;2023-04-10T01:47:20;4.30;99.90
5576;DHT22;2810;50.134;8.626;2023-04-10T01:49:46;5.00;99.90
5576;DHT22;2810;50.134;8.626;2023-04-10T01:52:13;4.30;99.90
5576;DHT22;2810;50.134;8.626;2023-04-10T01:54:39;4.30;99.90
5576;DHT22;2810;50.134;8.626;2023-04-10T01:57:05;4.30;99.90
5576;DHT22;2810;50.134;8.626;2023-04-10T01:59:31;4.30;99.90
5576;DHT22;2810;50.134;8.626;2023-04-10T02:01:57;4.30;99.90
5576;DHT22;2810;50.134;8.626;2023-04-10T02:04:23;4.30;99.90
5576;DHT22;2810;50.134;8.626;2023-04-10T02:07:01;4.90;99.90
5576;DHT22;2810;50.134;8.626;2023-04-10T02:09:32;4.30;99.90
5576;DHT22;2810;50.134;8.626;2023-04-10T02:12:03;4.30;99.90
5576;DHT22;2810;50.134;8.626;2023-04-10T02:14:31;4.40;99.90
5576;DHT22;2810;50.134;8.626;2023-04-10T02:16:56;4.40;99.90
5576;DHT22;2810;50.134;8.626;2023-04-10T02:19:23;4.40;99.90
5576;DHT22;2810;50.134;8.626;2023-04-10T02:21:52;4.40;99.90
5576;DHT22;2810;50.134;8.626;2023-04-10T02:24:18;4.40;99.90
5576;DHT22;2810;50.134;8.626;2023-04-10T02:26:48;4.40;99.90
5576;DHT22;2810;50.134;8.626;2023-04-10T02:29:14;4.40;99.90
5576;DHT22;2810;50.134;8.626;2023-04-10T02:31:40;4.50;99.90
5576;DHT22;2810;50.134;8.626;2023-04-10T02:34:05;4.50;99.90
5576;DHT22;2810;50.134;8.626;2023-04-10T02:36:31;4.50;99.90
5576;DHT22;2810;50.134;8.626;2023-04-10T02:38:57;4.50;99.90
5576;DHT22;2810;50.134;8.626;2023-04-10T02:41:22;4.50;99.90
5576;DHT22;2810;50.134;8.626;2023-04-10T02:43:48;4.40;99.90
5576;DHT22;2810;50.134;8.626;2023-04-10T02:46:14;4.40;99.90
5576;DHT22;2810;50.134;8.626;2023-04-10T02:48:39;4.50;99.90
5576;DHT22;2810;50.134;8.626;2023-04-10T02:51:05;4.40;99.90
5576;DHT22;2810;50.134;8.626;2023-04-10T02:53:31;4.40;99.90
5576;DHT22;2810;50.134;8.626;2023-04-10T02:55:57;4.40;99.90
5576;DHT22;2810;50.134;8.626;2023-04-10T02:58:22;4.40;99.90
5576;DHT22;2810;50.134;8.626;2023-04-10T03:00:48;4.40;99.90
5576;DHT22;2810;50.134;8.626;2023-04-10T03:03:14;4.40;99.90
5576;DHT22;2810;50.134;8.626;2023-04-10T03:05:39;4.30;99.90
5576;DHT22;2810;50.134;8.626;2023-04-10T03:08:05;4.30;99.90
5576;DHT22;2810;50.134;8.626;2023-04-10T03:10:30;4.30;99.90
5576;DHT22;2810;50.134;8.626;2023-04-10T03:12:56;4.30;99.90
5576;DHT22;2810;50.134;8.626;2023-04-10T03:15:21;4.30;99.90
5576;DHT22;2810;50.134;8.626;2023-04-10T03:17:46;4.30;99.90
5576;DHT22;2810;50.134;8.626;2023-04-10T03:20:12;4.60;99.90
5576;DHT22;2810;50.134;8.626;2023-04-10T03:22:37;4.30;99.90
5576;DHT22;2810;50.134;8.626;2023-04-10T03:25:04;4.30;99.90
5576;DHT22;2810;50.134;8.626;2023-04-10T03:27:29;4.30;99.90
5576;DHT22;2810;50.134;8.626;2023-04-10T03:29:56;4.20;99.90
5576;DHT22;2810;50.134;8.626;2023-04-10T03:32:21;4.20;99.90
5576;DHT22;2810;50.134;8.626;2023-04-10T03:34:47;4.20;99.90
5576;DHT22;2810;50.134;8.626;2023-04-10T03:37:12;4.20;99.90
5576;DHT22;2810;50.134;8.626;2023-04-10T03:39:38;4.20;99.90
5576;DHT22;2810;50.134;8.626;2023-04-10T03:42:03;4.20;99.90
5576;DHT22;2810;50.134;8.626;2023-04-10T03:44:29;4.30;99.90
5576;DHT22;2810;50.134;8.626;2023-04-10T03:46:54;4.30;99.90
5576;DHT22;2810;50.134;8.626;2023-04-10T03:49:19;4.30;99.90
5576;DHT22;2810;50.134;8.626;2023-04-10T03:51:45;4.30;99.90
5576;DHT22;2810;50.134;8.626;2023-04-10T03:54:10;4.30;99.90
5576;DHT22;2810;50.134;8.626;2023-04-10T03:56:36;4.30;99.90
5576;DHT22;2810;50.134;8.626;2023-04-10T03:59:01;4.30;99.90
5576;DHT22;2810;50.134;8.626;2023-04-10T04:01:27;4.40;99.90
5576;DHT22;2810;50.134;8.626;2023-04-10T04:03:52;4.30;99.90
5576;DHT22;2810;50.134;8.626;2023-04-10T04:06:18;4.30;99.90
5576;DHT22;2810;50.134;8.626;2023-04-10T04:08:43;4.30;99.90
5576;DHT22;2810;50.134;8.626;2023-04-10T04:11:08;4.30;99.90
5576;DHT22;2810;50.134;8.626;2023-04-10T04:13:34;4.30;99.90
5576;DHT22;2810;50.134;8.626;2023-04-10T04:15:59;4.30;99.90
5576;DHT22;2810;50.134;8.626;2023-04-10T04:18:25;4.30;99.90
5576;DHT22;2810;50.134;8.626;2023-04-10T04:20:50;4.30;99.90
5576;DHT22;2810;50.134;8.626;2023-04-10T04:23:16;4.40;99.90
5576;DHT22;2810;50.134;8.626;2023-04-10T04:25:41;4.20;99.90
5576;DHT22;2810;50.134;8.626;2023-04-10T04:28:08;4.20;99.90
5576;DHT22;2810;50.134;8.626;2023-04-10T04:30:34;4.20;99.90
5576;DHT22;2810;50.134;8.626;2023-04-10T04:32:59;4.70;99.90
5576;DHT22;2810;50.134;8.626;2023-04-10T04:35:24;3.80;99.90
5576;DHT22;2810;50.134;8.626;2023-04-10T04:37:50;4.10;99.90
5576;DHT22;2810;50.134;8.626;2023-04-10T04:40:15;4.10;99.90
5576;DHT22;2810;50.134;8.626;2023-04-10T04:42:41;4.10;99.90
5576;DHT22;2810;50.134;8.626;2023-04-10T04:45:06;4.10;99.90
5576;DHT22;2810;50.134;8.626;2023-04-10T04:47:32;4.10;99.90
5576;DHT22;2810;50.134;8.626;2023-04-10T04:49:57;4.10;99.90
5576;DHT22;2810;50.134;8.626;2023-04-10T04:52:23;4.10;99.90
5576;DHT22;2810;50.134;8.626;2023-04-10T04:54:49;4.10;99.90
5576;DHT22;2810;50.134;8.626;2023-04-10T04:57:15;4.10;99.90
5576;DHT22;2810;50.134;8.626;2023-04-10T04:59:40;4.10;99.90
5576;DHT22;2810;50.134;8.626;2023-04-10T05:02:05;4.10;99.90
5576;DHT22;2810;50.134;8.626;2023-04-10T05:04:31;4.20;99.90
5576;DHT22;2810;50.134;8.626;2023-04-10T05:06:56;4.50;99.90
5576;DHT22;2810;50.134;8.626;2023-04-10T05:09:22;4.20;99.90
5576;DHT22;2810;50.134;8.626;2023-04-10T05:11:47;4.30;99.90
5576;DHT22;2810;50.134;8.626;2023-04-10T05:14:14;4.30;99.90
5576;DHT22;2810;50.134;8.626;2023-04-10T05:16:40;4.40;99.90
5576;DHT22;2810;50.134;8.626;2023-04-10T05:19:06;4.40;99.90
5576;DHT22;2810;50.134;8.626;2023-04-10T05:21:31;4.50;99.90
5576;DHT22;2810;50.134;8.626;2023-04-10T05:23:57;4.50;99.90
5576;DHT22;2810;50.134;8.626;2023-04-10T05:26:22;4.50;99.90
5576;DHT22;2810;50.134;8.626;2023-04-10T05:28:48;4.60;99.90
5576;DHT22;2810;50.134;8.626;2023-04-10T05:31:14;4.70;99.90
5576;DHT22;2810;50.134;8.626;2023-04-10T05:33:39;4.80;99.90
5576;DHT22;2810;50.134;8.626;2023-04-10T05:36:05;4.80;99.90
5576;DHT22;2810;50.134;8.626;2023-04-10T05:38:30;4.90;99.90
5576;DHT22;2810;50.134;8.626;2023-04-10T05:40:56;5.10;99.90
5576;DHT22;2810;50.134;8.626;2023-04-10T05:43:21;5.00;99.90
5576;DHT22;2810;50.134;8.626;2023-04-10T05:45:47;5.10;99.90
5576;DHT22;2810;50.134;8.626;2023-04-10T05:48:12;5.20;99.90
5576;DHT22;2810;50.134;8.626;2023-04-10T05:50:37;5.40;99.90
5576;DHT22;2810;50.134;8.626;2023-04-10T05:53:03;5.40;99.90
5576;DHT22;2810;50.134;8.626;2023-04-10T05:55:31;5.50;99.90
5576;DHT22;2810;50.134;8.626;2023-04-10T05:57:57;5.60;99.90
5576;DHT22;2810;50.134;8.626;2023-04-10T06:00:22;5.60;99.90
5576;DHT22;2810;50.134;8.626;2023-04-10T06:02:48;5.70;99.90
5576;DHT22;2810;50.134;8.626;2023-04-10T06:05:13;5.70;99.90
5576;DHT22;2810;50.134;8.626;2023-04-10T06:07:39;5.70;99.90
5576;DHT22;2810;50.134;8.626;2023-04-10T06:10:05;6.30;99.90
5576;DHT22;2810;50.134;8.626;2023-04-10T06:12:30;5.90;99.90
5576;DHT22;2810;50.134;8.626;2023-04-10T06:14:56;6.00;99.90
5576;DHT22;2810;50.134;8.626;2023-04-10T06:17:21;6.20;99.90
5576;DHT22;2810;50.134;8.626;2023-04-10T06:19:49;6.40;99.90
5576;DHT22;2810;50.134;8.626;2023-04-10T06:22:15;6.70;99.90
5576;DHT22;2810;50.134;8.626;2023-04-10T06:24:40;7.00;99.90
5576;DHT22;2810;50.134;8.626;2023-04-10T06:27:06;7.50;99.90
5576;DHT22;2810;50.134;8.626;2023-04-10T06:29:32;8.00;99.90
5576;DHT22;2810;50.134;8.626;2023-04-10T06:31:57;8.70;99.90
5576;DHT22;2810;50.134;8.626;2023-04-10T06:34:23;9.40;99.90
5576;DHT22;2810;50.134;8.626;2023-04-10T06:36:48;9.90;99.90
5576;DHT22;2810;50.134;8.626;2023-04-10T06:39:14;10.30;99.90
5576;DHT22;2810;50.134;8.626;2023-04-10T06:41:39;10.60;99.90
5576;DHT22;2810;50.134;8.626;2023-04-10T06:44:05;10.60;99.90
5576;DHT22;2810;50.134;8.626;2023-04-10T06:46:30;10.80;99.90
5576;DHT22;2810;50.134;8.626;2023-04-10T06:48:56;10.90;99.90
5576;DHT22;2810;50.134;8.626;2023-04-10T06:51:21;11.10;99.90
5576;DHT22;2810;50.134;8.626;2023-04-10T06:53:46;11.20;99.90
5576;DHT22;2810;50.134;8.626;2023-04-10T06:56:12;11.50;99.90
5576;DHT22;2810;50.134;8.626;2023-04-10T06:58:37;12.10;99.90
5576;DHT22;2810;50.134;8.626;2023-04-10T07:01:03;12.40;99.90
5576;DHT22;2810;50.134;8.626;2023-04-10T07:03:29;13.10;99.90
5576;DHT22;2810;50.134;8.626;2023-04-10T07:05:54;13.50;99.90
5576;DHT22;2810;50.134;8.626;2023-04-10T07:08:21;14.30;99.90
5576;DHT22;2810;50.134;8.626;2023-04-10T07:10:46;14.80;99.90
5576;DHT22;2810;50.134;8.626;2023-04-10T07:13:12;15.40;99.90
5576;DHT22;2810;50.134;8.626;2023-04-10T07:15:37;15.70;99.90
5576;DHT22;2810;50.134;8.626;2023-04-10T07:18:02;15.80;99.90
5576;DHT22;2810;50.134;8.626;2023-04-10T07:20:28;15.80;99.00
5576;DHT22;2810;50.134;8.626;2023-04-10T07:22:53;15.70;98.60
5576;DHT22;2810;50.134;8.626;2023-04-10T07:25:19;16.10;97.30
5576;DHT22;2810;50.134;8.626;2023-04-10T07:27:44;16.50;95.10
5576;DHT22;2810;50.134;8.626;2023-04-10T07:30:10;16.70;94.40
5576;DHT22;2810;50.134;8.626;2023-04-10T07:32:35;17.00;92.10
5576;DHT22;2810;50.134;8.626;2023-04-10T07:35:01;16.80;91.40
5576;DHT22;2810;50.134;8.626;2023-04-10T07:37:27;16.80;91.30
5576;DHT22;2810;50.134;8.626;2023-04-10T07:39:52;16.90;90.80
5576;DHT22;2810;50.134;8.626;2023-04-10T07:42:17;17.50;86.60
5576;DHT22;2810;50.134;8.626;2023-04-10T07:44:43;18.00;86.20
5576;DHT22;2810;50.134;8.626;2023-04-10T07:47:08;18.60;80.80
5576;DHT22;2810;50.134;8.626;2023-04-10T07:49:34;19.20;79.50
5576;DHT22;2810;50.134;8.626;2023-04-10T07:51:59;19.40;74.30
5576;DHT22;2810;50.134;8.626;2023-04-10T07:54:25;19.30;74.80
5576;DHT22;2810;50.134;8.626;2023-04-10T07:56:51;19.30;71.50
5576;DHT22;2810;50.134;8.626;2023-04-10T07:59:16;18.90;72.10
5576;DHT22;2810;50.134;8.626;2023-04-10T08:01:42;18.60;73.80
5576;DHT22;2810;50.134;8.626;2023-04-10T08:04:07;18.60;72.20
5576;DHT22;2810;50.134;8.626;2023-04-10T08:06:33;18.70;71.70
5576;DHT22;2810;50.134;8.626;2023-04-10T08:08:58;18.80;72.00
5576;DHT22;2810;50.134;8.626;2023-04-10T08:11:27;18.90;71.70
5576;DHT22;2810;50.134;8.626;2023-04-10T08:13:57;18.10;72.60
5576;DHT22;2810;50.134;8.626;2023-04-10T08:16:26;18.90;73.50
5576;DHT22;2810;50.134;8.626;2023-04-10T08:18:52;19.50;70.40
5576;DHT22;2810;50.134;8.626;2023-04-10T08:21:18;20.10;69.40
5576;DHT22;2810;50.134;8.626;2023-04-10T08:23:44;20.30;66.70
5576;DHT22;2810;50.134;8.626;2023-04-10T08:26:11;20.40;65.80
5576;DHT22;2810;50.134;8.626;2023-04-10T08:28:37;19.90;66.50
5576;DHT22;2810;50.134;8.626;2023-04-10T08:31:02;20.50;64.60
5576;DHT22;2810;50.134;8.626;2023-04-10T08:33:27;20.80;64.20
5576;DHT22;2810;50.134;8.626;2023-04-10T08:35:53;21.10;61.80
5576;DHT22;2810;50.134;8.626;2023-04-10T08:38:19;20.50;63.40
5576;DHT22;2810;50.134;8.626;2023-04-10T08:40:45;20.80;62.50
5576;DHT22;2810;50.134;8.626;2023-04-10T08:43:11;21.00;61.90
5576;DHT22;2810;50.134;8.626;2023-04-10T08:45:38;21.10;59.90
5576;DHT22;2810;50.134;8.626;2023-04-10T08:48:04;21.00;60.40
5576;DHT22;2810;50.134;8.626;2023-04-10T08:50:30;21.60;59.50
5576;DHT22;2810;50.134;8.626;2023-04-10T08:52:58;22.20;57.60
5576;DHT22;2810;50.134;8.626;2023-04-10T08:55:24;22.30;57.00
5576;DHT22;2810;50.134;8.626;2023-04-10T08:57:50;22.40;55.40
5576;DHT22;2810;50.134;8.626;2023-04-10T09:00:16;21.40;55.80
5576;DHT22;2810;50.134;8.626;2023-04-10T09:02:42;20.50;57.20
5576;DHT22;2810;50.134;8.626;2023-04-10T09:05:09;20.40;57.70
5576;DHT22;2810;50.134;8.626;2023-04-10T09:07:35;20.50;57.30
5576;DHT22;2810;50.134;8.626;2023-04-10T09:10:00;20.30;56.60
5576;DHT22;2810;50.134;8.626;2023-04-10T09:12:26;20.30;57.40
5576;DHT22;2810;50.134;8.626;2023-04-10T09:14:51;20.50;57.60
5576;DHT22;2810;50.134;8.626;2023-04-10T09:17:18;21.50;56.00
5576;DHT22;2810;50.134;8.626;2023-04-10T09:19:44;21.60;54.50
5576;DHT22;2810;50.134;8.626;2023-04-10T09:22:10;21.80;55.00
5576;DHT22;2810;50.134;8.626;2023-04-10T09:24:36;21.70;53.70
5576;DHT22;2810;50.134;8.626;2023-04-10T09:27:02;21.80;54.20
5576;DHT22;2810;50.134;8.626;2023-04-10T09:29:37;21.50;53.70
5576;DHT22;2810;50.134;8.626;2023-04-10T09:32:03;20.90;54.30
5576;DHT22;2810;50.134;8.626;2023-04-10T09:34:28;20.70;55.50
5576;DHT22;2810;50.134;8.626;2023-04-10T09:36:54;21.70;55.70
5576;DHT22;2810;50.134;8.626;2023-04-10T09:39:20;21.50;55.80
5576;DHT22;2810;50.134;8.626;2023-04-10T09:41:50;21.20;55.60
5576;DHT22;2810;50.134;8.626;2023-04-10T09:44:16;20.10;55.60
5576;DHT22;2810;50.134;8.626;2023-04-10T09:46:43;19.10;58.20
5576;DHT22;2810;50.134;8.626;2023-04-10T09:49:09;18.70;60.30
5576;DHT22;2810;50.134;8.626;2023-04-10T09:51:35;18.50;60.30
5576;DHT22;2810;50.134;8.626;2023-04-10T09:54:04;18.80;59.10
5576;DHT22;2810;50.134;8.626;2023-04-10T09:56:29;19.20;59.30
5576;DHT22;2810;50.134;8.626;2023-04-10T09:58:59;19.50;58.60
5576;DHT22;2810;50.134;8.626;2023-04-10T10:01:25;20.00;57.40
5576;DHT22;2810;50.134;8.626;2023-04-10T10:03:50;20.30;56.50
5576;DHT22;2810;50.134;8.626;2023-04-10T10:06:17;20.50;57.10
5576;DHT22;2810;50.134;8.626;2023-04-10T10:08:42;20.80;55.40
5576;DHT22;2810;50.134;8.626;2023-04-10T10:11:08;21.00;57.80
5576;DHT22;2810;50.134;8.626;2023-04-10T10:13:43;21.00;54.60
5576;DHT22;2810;50.134;8.626;2023-04-10T10:16:18;20.90;54.70
5576;DHT22;2810;50.134;8.626;2023-04-10T10:18:55;21.00;54.60
5576;DHT22;2810;50.134;8.626;2023-04-10T10:21:22;21.10;54.50
5576;DHT22;2810;50.134;8.626;2023-04-10T10:23:48;21.40;54.80
5576;DHT22;2810;50.134;8.626;2023-04-10T10:26:18;22.60;53.90
5576;DHT22;2810;50.134;8.626;2023-04-10T10:28:43;22.80;52.90
5576;DHT22;2810;50.134;8.626;2023-04-10T10:31:10;23.30;54.00
5576;DHT22;2810;50.134;8.626;2023-04-10T10:33:36;23.80;51.60
5576;DHT22;2810;50.134;8.626;2023-04-10T10:36:02;24.40;50.20
5576;DHT22;2810;50.134;8.626;2023-04-10T10:38:29;24.20;50.80
5576;DHT22;2810;50.134;8.626;2023-04-10T10:46:11;22.80;51.00
5576;DHT22;2810;50.134;8.626;2023-04-10T10:48:52;22.70;51.00
5576;DHT22;2810;50.134;8.626;2023-04-10T10:51:19;23.30;50.70
5576;DHT22;2810;50.134;8.626;2023-04-10T10:53:44;23.00;51.10
5576;DHT22;2810;50.134;8.626;2023-04-10T10:58:50;22.30;51.30
5576;DHT22;2810;50.134;8.626;2023-04-10T11:01:17;22.30;51.50
5576;DHT22;2810;50.134;8.626;2023-04-10T11:03:43;22.40;51.40
5576;DHT22;2810;50.134;8.626;2023-04-10T11:06:16;22.50;51.90
5576;DHT22;2810;50.134;8.626;2023-04-10T11:08:49;22.50;51.90
5576;DHT22;2810;50.134;8.626;2023-04-10T11:11:18;22.50;50.80
5576;DHT22;2810;50.134;8.626;2023-04-10T11:16:22;22.40;50.50
5576;DHT22;2810;50.134;8.626;2023-04-10T11:21:15;22.30;50.50
5576;DHT22;2810;50.134;8.626;2023-04-10T11:29:51;22.10;50.90
5576;DHT22;2810;50.134;8.626;2023-04-10T11:31:55;21.90;50.50
5576;DHT22;2810;50.134;8.626;2023-04-10T11:34:21;21.10;51.40
5576;DHT22;2810;50.134;8.626;2023-04-10T11:36:46;20.80;51.80
5576;DHT22;2810;50.134;8.626;2023-04-10T11:39:12;20.00;51.80
5576;DHT22;2810;50.134;8.626;2023-04-10T11:41:39;19.80;53.80
5576;DHT22;2810;50.134;8.626;2023-04-10T11:44:05;19.90;54.50
5576;DHT22;2810;50.134;8.626;2023-04-10T11:46:34;19.50;55.00
5576;DHT22;2810;50.134;8.626;2023-04-10T11:49:00;19.50;54.60
5576;DHT22;2810;50.134;8.626;2023-04-10T11:51:26;19.60;53.80
5576;DHT22;2810;50.134;8.626;2023-04-10T11:54:12;19.30;53.10
5576;DHT22;2810;50.134;8.626;2023-04-10T11:56:39;19.20;52.90
5576;DHT22;2810;50.134;8.626;2023-04-10T11:59:05;19.00;54.50
5576;DHT22;2810;50.134;8.626;2023-04-10T12:01:38;19.30;54.90
5576;DHT22;2810;50.134;8.626;2023-04-10T12:04:12;19.00;54.40
5576;DHT22;2810;50.134;8.626;2023-04-10T12:06:37;19.10;54.10
5576;DHT22;2810;50.134;8.626;2023-04-10T12:09:11;19.20;54.40
5576;DHT22;2810;50.134;8.626;2023-04-10T12:11:36;19.40;54.10
5576;DHT22;2810;50.134;8.626;2023-04-10T12:14:02;19.50;54.50
5576;DHT22;2810;50.134;8.626;2023-04-10T12:16:28;19.60;53.50
5576;DHT22;2810;50.134;8.626;2023-04-10T12:18:53;19.70;52.10
5576;DHT22;2810;50.134;8.626;2023-04-10T12:21:19;19.70;52.70
5576;DHT22;2810;50.134;8.626;2023-04-10T12:23:45;19.80;51.70
5576;DHT22;2810;50.134;8.626;2023-04-10T12:26:12;20.00;47.90
5576;DHT22;2810;50.134;8.626;2023-04-10T12:28:38;20.00;48.60
5576;DHT22;2810;50.134;8.626;2023-04-10T12:31:04;20.30;49.40
5576;DHT22;2810;50.134;8.626;2023-04-10T12:33:30;20.30;46.60
5576;DHT22;2810;50.134;8.626;2023-04-10T12:35:55;20.50;45.90
5576;DHT22;2810;50.134;8.626;2023-04-10T12:38:34;20.60;46.40
5576;DHT22;2810;50.134;8.626;2023-04-10T12:40:59;20.80;46.20
5576;DHT22;2810;50.134;8.626;2023-04-10T12:43:35;21.00;44.40
5576;DHT22;2810;50.134;8.626;2023-04-10T12:46:01;21.20;43.20
5576;DHT22;2810;50.134;8.626;2023-04-10T12:48:26;21.00;42.90
5576;DHT22;2810;50.134;8.626;2023-04-10T12:50:52;21.10;43.90
5576;DHT22;2810;50.134;8.626;2023-04-10T12:53:17;21.30;43.90
5576;DHT22;2810;50.134;8.626;2023-04-10T12:56:02;21.20;43.10
5576;DHT22;2810;50.134;8.626;2023-04-10T12:58:28;21.10;41.90
5576;DHT22;2810;50.134;8.626;2023-04-10T13:00:55;21.00;42.50
5576;DHT22;2810;50.134;8.626;2023-04-10T13:03:21;21.10;43.30
5576;DHT22;2810;50.134;8.626;2023-04-10T13:05:47;21.20;44.30
5576;DHT22;2810;50.134;8.626;2023-04-10T13:08:12;21.10;45.50
5576;DHT22;2810;50.134;8.626;2023-04-10T13:10:38;21.10;45.70
5576;DHT22;2810;50.134;8.626;2023-04-10T13:13:04;21.30;44.40
5576;DHT22;2810;50.134;8.626;2023-04-10T13:15:31;21.30;44.10
5576;DHT22;2810;50.134;8.626;2023-04-10T13:17:59;21.80;45.40
5576;DHT22;2810;50.134;8.626;2023-04-10T13:20:24;21.40;44.20
5576;DHT22;2810;50.134;8.626;2023-04-10T13:22:50;21.40;42.20
5576;DHT22;2810;50.134;8.626;2023-04-10T13:25:15;21.40;43.80
5576;DHT22;2810;50.134;8.626;2023-04-10T13:27:41;21.30;44.00
5576;DHT22;2810;50.134;8.626;2023-04-10T13:30:06;21.50;45.50
5576;DHT22;2810;50.134;8.626;2023-04-10T13:32:32;21.60;45.70
5576;DHT22;2810;50.134;8.626;2023-04-10T13:34:57;21.40;44.60
5576;DHT22;2810;50.134;8.626;2023-04-10T13:37:23;21.30;44.90
5576;DHT22;2810;50.134;8.626;2023-04-10T13:39:48;21.00;45.00
5576;DHT22;2810;50.134;8.626;2023-04-10T13:42:13;20.80;44.90
5576;DHT22;2810;50.134;8.626;2023-04-10T13:44:39;20.60;45.40
5576;DHT22;2810;50.134;8.626;2023-04-10T13:47:05;20.30;45.20
5576;DHT22;2810;50.134;8.626;2023-04-10T13:49:30;20.60;45.80
5576;DHT22;2810;50.134;8.626;2023-04-10T13:51:56;20.40;45.60
5576;DHT22;2810;50.134;8.626;2023-04-10T13:54:22;20.50;46.70
5576;DHT22;2810;50.134;8.626;2023-04-10T13:56:47;20.50;47.20
5576;DHT22;2810;50.134;8.626;2023-04-10T13:59:13;20.30;46.50
5576;DHT22;2810;50.134;8.626;2023-04-10T14:01:39;20.10;46.70
5576;DHT22;2810;50.134;8.626;2023-04-10T14:04:05;20.20;47.90
5576;DHT22;2810;50.134;8.626;2023-04-10T14:06:30;20.10;48.00
5576;DHT22;2810;50.134;8.626;2023-04-10T14:08:56;20.20;48.20
5576;DHT22;2810;50.134;8.626;2023-04-10T14:11:21;20.20;48.00
5576;DHT22;2810;50.134;8.626;2023-04-10T14:13:47;20.30;47.90
5576;DHT22;2810;50.134;8.626;2023-04-10T14:16:13;20.30;47.60
5576;DHT22;2810;50.134;8.626;2023-04-10T14:18:38;20.20;48.30
5576;DHT22;2810;50.134;8.626;2023-04-10T14:21:04;20.40;48.70
5576;DHT22;2810;50.134;8.626;2023-04-10T14:23:30;20.50;47.00
5576;DHT22;2810;50.134;8.626;2023-04-10T14:25:55;20.40;47.10
5576;DHT22;2810;50.134;8.626;2023-04-10T14:28:21;20.40;47.70
5576;DHT22;2810;50.134;8.626;2023-04-10T14:30:47;20.40;48.00
5576;DHT22;2810;50.134;8.626;2023-04-10T14:33:13;20.30;46.20
5576;DHT22;2810;50.134;8.626;2023-04-10T14:35:39;20.20;46.70
5576;DHT22;2810;50.134;8.626;2023-04-10T14:38:04;20.20;46.40
5576;DHT22;2810;50.134;8.626;2023-04-10T14:40:30;20.00;46.50
5576;DHT22;2810;50.134;8.626;2023-04-10T14:42:55;20.00;46.90
5576;DHT22;2810;50.134;8.626;2023-04-10T14:45:21;20.00;46.70
5576;DHT22;2810;50.134;8.626;2023-04-10T14:47:46;20.00;46.50
5576;DHT22;2810;50.134;8.626;2023-04-10T14:50:12;19.90;46.90
5576;DHT22;2810;50.134;8.626;2023-04-10T14:52:37;19.90;46.40
5576;DHT22;2810;50.134;8.626;2023-04-10T14:55:03;19.80;45.60
5576;DHT22;2810;50.134;8.626;2023-04-10T14:57:28;19.80;45.90
5576;DHT22;2810;50.134;8.626;2023-04-10T14:59:54;19.90;45.10
5576;DHT22;2810;50.134;8.626;2023-04-10T15:02:19;19.80;45.30
5576;DHT22;2810;50.134;8.626;2023-04-10T15:04:45;20.00;45.50
5576;DHT22;2810;50.134;8.626;2023-04-10T15:07:11;19.70;45.30
5576;DHT22;2810;50.134;8.626;2023-04-10T15:09:39;19.30;45.50
5576;DHT22;2810;50.134;8.626;2023-04-10T15:12:05;19.30;45.50
5576;DHT22;2810;50.134;8.626;2023-04-10T15:14:30;19.20;45.30
5576;DHT22;2810;50.134;8.626;2023-04-10T15:16:56;19.20;45.60
5576;DHT22;2810;50.134;8.626;2023-04-10T15:19:21;19.20;45.30
5576;DHT22;2810;50.134;8.626;2023-04-10T15:21:47;19.20;44.90
5576;DHT22;2810;50.134;8.626;2023-04-10T15:24:12;19.10;44.30
5576;DHT22;2810;50.134;8.626;2023-04-10T15:26:41;18.90;44.90
5576;DHT22;2810;50.134;8.626;2023-04-10T15:29:07;19.10;45.20
5576;DHT22;2810;50.134;8.626;2023-04-10T15:31:32;19.10;45.60
5576;DHT22;2810;50.134;8.626;2023-04-10T15:33:58;19.10;45.20
5576;DHT22;2810;50.134;8.626;2023-04-10T15:36:23;19.10;45.70
5576;DHT22;2810;50.134;8.626;2023-04-10T15:38:48;19.10;44.80
5576;DHT22;2810;50.134;8.626;2023-04-10T15:41:14;19.10;44.80
5576;DHT22;2810;50.134;8.626;2023-04-10T15:43:39;19.20;45.70
5576;DHT22;2810;50.134;8.626;2023-04-10T15:46:06;19.00;45.40
5576;DHT22;2810;50.134;8.626;2023-04-10T15:48:32;19.00;45.40
5576;DHT22;2810;50.134;8.626;2023-04-10T15:50:58;19.00;45.40
5576;DHT22;2810;50.134;8.626;2023-04-10T15:53:23;19.40;46.80
5576;DHT22;2810;50.134;8.626;2023-04-10T15:55:49;19.10;45.30
5576;DHT22;2810;50.134;8.626;2023-04-10T15:58:14;19.20;45.20
5576;DHT22;2810;50.134;8.626;2023-04-10T16:00:40;19.30;44.80
5576;DHT22;2810;50.134;8.626;2023-04-10T16:03:05;19.30;44.70
5576;DHT22;2810;50.134;8.626;2023-04-10T16:05:30;19.30;45.10
5576;DHT22;2810;50.134;8.626;2023-04-10T16:07:56;19.20;45.30
5576;DHT22;2810;50.134;8.626;2023-04-10T16:10:21;19.20;45.40
5576;DHT22;2810;50.134;8.626;2023-04-10T16:12:47;19.10;46.20
5576;DHT22;2810;50.134;8.626;2023-04-10T16:15:12;19.00;45.80
5576;DHT22;2810;50.134;8.626;2023-04-10T16:17:38;18.90;46.80
5576;DHT22;2810;50.134;8.626;2023-04-10T16:20:04;18.80;47.00
5576;DHT22;2810;50.134;8.626;2023-04-10T16:22:30;18.70;46.00
5576;DHT22;2810;50.134;8.626;2023-04-10T16:24:56;18.60;46.20
5576;DHT22;2810;50.134;8.626;2023-04-10T16:27:22;18.60;46.20
5576;DHT22;2810;50.134;8.626;2023-04-10T16:29:48;18.60;45.60